createdAt,value
2019-05-26T00:01:32.402Z,99239.63
2019-05-26T00:04:22.166Z,99235.38
2019-05-26T00:07:11.930Z,99239.03
2019-05-26T00:10:01.934Z,99241.17
2019-05-26T00:12:53.170Z,99243.28
2019-05-26T00:15:42.954Z,99236.30
2019-05-26T00:18:33.559Z,99244.95
2019-05-26T00:21:10.272Z,99237.70
2019-05-26T00:23:40.645Z,99235.02
2019-05-26T00:26:30.420Z,99238.18
2019-05-26T00:29:20.160Z,99235.88
2019-05-26T00:32:09.949Z,99241.16
2019-05-26T00:34:59.744Z,99229.92
2019-05-26T00:37:50.651Z,99237.11
2019-05-26T00:40:27.526Z,99238.42
2019-05-26T00:43:17.306Z,99240.95
2019-05-26T00:46:07.072Z,99235.34
2019-05-26T00:48:56.812Z,99239.46
2019-05-26T00:51:46.609Z,99243.02
2019-05-26T00:54:36.360Z,99238.65
2019-05-26T00:57:06.817Z,99236.73
2019-05-26T00:59:56.563Z,99241.52
2019-05-26T01:02:46.319Z,99242.14
2019-05-26T01:05:36.058Z,99243.91
2019-05-26T01:08:25.837Z,99246.14
2019-05-26T01:11:15.569Z,99248.36
2019-05-26T01:14:44.742Z,99246.52
2019-05-26T01:17:34.487Z,99243.94
2019-05-26T01:23:39.817Z,99246.22
2019-05-26T01:26:10.162Z,99249.25
2019-05-26T01:28:59.947Z,99242.12
2019-05-26T01:31:49.686Z,99251.64
2019-05-26T01:34:39.639Z,99247.30
2019-05-26T01:37:11.724Z,99250.80
2019-05-26T01:39:42.204Z,99253.63
2019-05-26T01:42:31.994Z,99256.57
2019-05-26T01:45:21.769Z,99254.53
2019-05-26T01:48:11.610Z,99259.16
2019-05-26T01:51:01.370Z,99259.25
2019-05-26T01:53:51.118Z,99265.27
2019-05-26T01:56:41.021Z,99261.69
2019-05-26T01:59:30.852Z,99257.95
2019-05-26T02:02:01.266Z,99258.13
2019-05-26T02:04:31.648Z,99261.45
2019-05-26T02:07:21.420Z,99257.95
2019-05-26T02:10:11.372Z,99264.73
2019-05-26T02:13:01.146Z,99257.81
2019-05-26T02:15:31.586Z,99259.86
2019-05-26T02:18:21.366Z,99254.77
2019-05-26T02:21:14.716Z,99259.41
2019-05-26T02:23:54.863Z,99259.02
2019-05-26T02:26:25.196Z,99263.29
2019-05-26T02:29:15.103Z,99259.95
2019-05-26T02:31:45.524Z,99262.98
2019-05-26T02:34:17.540Z,99260.61
2019-05-26T02:37:07.288Z,99261.84
2019-05-26T02:39:57.048Z,99264.34
2019-05-26T02:42:46.794Z,99263.05
2019-05-26T02:45:36.588Z,99266.09
2019-05-26T02:48:26.348Z,99265.19
2019-05-26T02:51:16.110Z,99260.72
2019-05-26T02:53:46.466Z,99267.13
2019-05-26T02:56:36.321Z,99258.52
2019-05-26T02:59:26.101Z,99265.53
2019-05-26T03:02:15.889Z,99264.84
2019-05-26T03:05:06.476Z,99261.84
2019-05-26T03:08:16.937Z,99265.12
2019-05-26T03:17:25.620Z,99267.17
2019-05-26T03:20:15.493Z,99267.77
2019-05-26T03:22:57.730Z,99263.98
2019-05-26T03:25:28.607Z,99268.62
2019-05-26T03:28:18.396Z,99270.60
2019-05-26T03:31:08.141Z,99274.94
2019-05-26T03:33:38.601Z,99278.31
2019-05-26T03:36:28.346Z,99271.30
2019-05-26T03:39:18.110Z,99272.36
2019-05-26T03:48:14.836Z,99269.81
2019-05-26T03:51:04.584Z,99269.02
2019-05-26T03:53:54.369Z,99274.14
2019-05-26T03:56:44.101Z,99268.48
2019-05-26T03:59:33.871Z,99269.95
2019-05-26T04:02:23.594Z,99280.26
2019-05-26T04:05:13.483Z,99274.05
2019-05-26T04:08:05.358Z,99282.31
2019-05-26T04:10:46.452Z,99289.86
2019-05-26T04:13:36.276Z,99290.08
2019-05-26T04:16:26.082Z,99293.81
2019-05-26T04:19:15.932Z,99304.76
2019-05-26T04:22:05.701Z,99305.39
2019-05-26T04:24:36.085Z,99302.66
2019-05-26T04:27:26.121Z,99311.09
2019-05-26T04:30:15.901Z,99306.45
2019-05-26T04:32:47.893Z,99306.30
2019-05-26T04:35:37.672Z,99311.72
2019-05-26T04:38:08.051Z,99311.88
2019-05-26T04:40:57.850Z,99314.67
2019-05-26T04:43:47.587Z,99310.49
2019-05-26T04:46:37.390Z,99308.50
2019-05-26T04:49:27.267Z,99307.00
2019-05-26T04:51:57.979Z,99314.98
2019-05-26T04:54:47.729Z,99315.37
2019-05-26T04:57:37.546Z,99308.90
2019-05-26T05:00:27.294Z,99313.38
2019-05-26T05:03:17.031Z,99312.53
2019-05-26T05:06:06.790Z,99313.02
2019-05-26T05:08:37.162Z,99331.66
2019-05-26T05:11:26.894Z,99326.11
2019-05-26T05:14:16.648Z,99326.27
2019-05-26T05:17:18.553Z,99337.77
2019-05-26T05:19:51.286Z,99324.16
2019-05-26T05:22:41.040Z,99318.08
2019-05-26T05:25:30.833Z,99326.55
2019-05-26T05:28:20.612Z,99321.96
2019-05-26T05:31:10.406Z,99319.55
2019-05-26T05:34:00.143Z,99323.50
2019-05-26T05:36:49.928Z,99322.73
2019-05-26T05:39:39.799Z,99332.22
2019-05-26T05:42:10.199Z,99329.73
2019-05-26T05:44:59.980Z,99320.03
2019-05-26T05:47:49.744Z,99330.28
2019-05-26T05:50:39.627Z,99332.10
2019-05-26T05:53:29.661Z,99338.13
2019-05-26T05:56:19.449Z,99331.97
2019-05-26T05:59:09.208Z,99331.41
2019-05-26T06:01:58.957Z,99340.45
2019-05-26T06:04:48.729Z,99336.84
2019-05-26T06:07:19.248Z,99349.17
2019-05-26T06:10:48.427Z,99343.90
2019-05-26T06:13:18.905Z,99342.83
2019-05-26T06:15:49.280Z,99354.41
2019-05-26T06:18:21.306Z,99349.94
2019-05-26T06:21:11.070Z,99346.49
2019-05-26T06:24:00.830Z,99346.27
2019-05-26T06:26:50.601Z,99356.75
2019-05-26T06:29:40.369Z,99340.27
2019-05-26T06:32:30.160Z,99345.20
2019-05-26T06:35:19.934Z,99345.65
2019-05-26T06:38:09.717Z,99354.81
2019-05-26T06:40:59.474Z,99345.77
2019-05-26T06:43:49.999Z,99342.12
2019-05-26T06:46:39.765Z,99346.85
2019-05-26T06:49:29.530Z,99355.74
2019-05-26T06:52:19.296Z,99346.81
2019-05-26T06:55:09.070Z,99354.50
2019-05-26T06:57:58.806Z,99359.80
2019-05-26T07:00:48.581Z,99345.28
2019-05-26T07:03:19.214Z,99344.05
2019-05-26T07:06:09.017Z,99353.25
2019-05-26T07:08:58.833Z,99349.08
2019-05-26T07:11:55.850Z,99361.05
2019-05-26T07:14:32.995Z,99365.16
2019-05-26T07:17:22.826Z,99363.19
2019-05-26T07:20:12.795Z,99375.04
2019-05-26T07:23:02.757Z,99368.99
2019-05-26T07:25:52.608Z,99367.70
2019-05-26T07:28:42.393Z,99368.92
2019-05-26T07:31:32.137Z,99357.58
2019-05-26T07:34:21.912Z,99366.92
2019-05-26T07:37:11.676Z,99362.73
2019-05-26T07:40:01.487Z,99364.56
2019-05-26T07:42:31.827Z,99374.33
2019-05-26T07:45:21.597Z,99360.33
2019-05-26T07:48:11.334Z,99358.26
2019-05-26T07:51:01.227Z,99360.42
2019-05-26T07:53:51.011Z,99361.16
2019-05-26T07:56:40.779Z,99358.19
2019-05-26T07:59:30.569Z,99346.86
2019-05-26T08:02:20.364Z,99353.36
2019-05-26T08:05:10.111Z,99356.11
2019-05-26T08:08:12.270Z,99356.46
2019-05-26T08:10:51.388Z,99360.75
2019-05-26T08:13:41.187Z,99355.05
2019-05-26T08:16:31.589Z,99355.66
2019-05-26T08:19:13.225Z,99361.55
2019-05-26T08:22:03.009Z,99362.63
2019-05-26T08:24:52.797Z,99357.77
2019-05-26T08:27:42.608Z,99362.00
2019-05-26T08:30:32.369Z,99354.68
2019-05-26T08:33:22.146Z,99353.95
2019-05-26T08:36:11.931Z,99357.24
2019-05-26T08:39:01.675Z,99377.03
2019-05-26T08:41:32.156Z,99362.25
2019-05-26T08:44:21.905Z,99366.34
2019-05-26T08:47:11.785Z,99364.84
2019-05-26T08:50:02.035Z,99357.95
2019-05-26T08:52:52.824Z,99360.45
2019-05-26T08:55:42.594Z,99359.81
2019-05-26T08:58:32.399Z,99361.77
2019-05-26T09:01:22.165Z,99362.80
2019-05-26T09:04:11.960Z,99348.66
2019-05-26T09:07:01.725Z,99353.55
2019-05-26T09:09:51.556Z,99359.16
2019-05-26T09:12:41.442Z,99358.98
2019-05-26T09:15:31.226Z,99350.72
2019-05-26T09:18:20.996Z,99346.20
2019-05-26T09:21:10.816Z,99337.48
2019-05-26T09:24:00.531Z,99344.50
2019-05-26T09:26:50.313Z,99346.56
2019-05-26T09:29:40.127Z,99352.02
2019-05-26T09:32:16.672Z,99357.17
2019-05-26T09:37:49.428Z,99343.95
2019-05-26T09:40:20.111Z,99352.29
2019-05-26T09:43:16.057Z,99348.59
2019-05-26T09:46:01.442Z,99344.66
2019-05-26T09:48:51.244Z,99342.52
2019-05-26T09:51:40.984Z,99343.62
2019-05-26T09:54:30.786Z,99344.57
2019-05-26T09:57:20.572Z,99348.80
2019-05-26T10:03:26.325Z,99335.39
2019-05-26T10:05:56.733Z,99334.70
2019-05-26T10:08:46.525Z,99337.66
2019-05-26T10:11:36.324Z,99329.72
2019-05-26T10:14:26.144Z,99329.74
2019-05-26T10:16:56.571Z,99329.48
2019-05-26T10:19:46.306Z,99336.67
2019-05-26T10:22:36.109Z,99331.80
2019-05-26T10:25:06.645Z,99331.45
2019-05-26T10:27:56.445Z,99323.37
2019-05-26T10:30:46.202Z,99333.10
2019-05-26T10:33:35.982Z,99323.59
2019-05-26T10:36:25.796Z,99313.77
2019-05-26T10:39:15.561Z,99312.47
2019-05-26T10:42:05.474Z,99316.02
2019-05-26T10:44:55.259Z,99308.13
2019-05-26T10:47:25.676Z,99308.00
2019-05-26T10:50:36.010Z,99301.02
2019-05-26T10:53:25.845Z,99304.61
2019-05-26T10:56:15.681Z,99303.91
2019-05-26T10:59:05.546Z,99306.88
2019-05-26T11:01:55.391Z,99298.52
2019-05-26T11:04:25.850Z,99290.62
2019-05-26T11:07:15.693Z,99303.66
2019-05-26T11:10:06.166Z,99305.16
2019-05-26T11:12:55.957Z,99298.91
2019-05-26T11:15:46.180Z,99291.53
2019-05-26T11:18:35.983Z,99288.78
2019-05-26T11:21:25.828Z,99287.60
2019-05-26T11:24:15.631Z,99274.02
2019-05-26T11:27:10.935Z,99268.98
2019-05-26T11:29:50.522Z,99264.09
2019-05-26T11:32:40.321Z,99271.47
2019-05-26T11:35:30.142Z,99260.34
2019-05-26T11:38:19.960Z,99264.91
2019-05-26T11:41:09.792Z,99257.66
2019-05-26T11:43:59.553Z,99249.97
2019-05-26T11:46:49.388Z,99247.19
2019-05-26T11:49:19.822Z,99234.92
2019-05-26T11:52:09.649Z,99241.50
2019-05-26T11:54:59.400Z,99242.73
2019-05-26T11:57:49.242Z,99243.65
2019-05-26T12:00:58.074Z,99238.36
2019-05-26T12:03:48.121Z,99238.92
2019-05-26T12:06:38.778Z,99234.30
2019-05-26T12:09:28.664Z,99240.64
2019-05-26T12:12:18.447Z,99234.88
2019-05-26T12:15:08.646Z,99226.98
2019-05-26T12:17:58.415Z,99230.27
2019-05-26T12:20:48.313Z,99224.52
2019-05-26T12:26:23.116Z,99227.00
2019-05-26T12:29:12.918Z,99223.34
2019-05-26T12:32:02.743Z,99221.70
2019-05-26T12:34:52.554Z,99220.38
2019-05-26T12:37:42.373Z,99223.52
2019-05-26T12:40:32.147Z,99220.47
2019-05-26T12:43:21.937Z,99214.42
2019-05-26T12:46:11.693Z,99209.13
2019-05-26T12:49:01.538Z,99212.01
2019-05-26T12:51:51.313Z,99210.33
2019-05-26T12:54:41.148Z,99207.38
2019-05-26T12:57:30.911Z,99206.23
2019-05-26T13:00:20.744Z,99199.19
2019-05-26T13:03:10.547Z,99200.92
2019-05-26T13:06:00.350Z,99193.64
2019-05-26T13:08:50.170Z,99192.28
2019-05-26T13:11:39.996Z,99190.59
2019-05-26T13:14:29.812Z,99179.41
2019-05-26T13:17:19.608Z,99182.13
2019-05-26T13:23:30.422Z,99173.89
2019-05-26T13:26:20.218Z,99166.05
2019-05-26T13:29:10.098Z,99168.20
2019-05-26T13:31:40.468Z,99173.56
2019-05-26T13:34:30.257Z,99167.66
2019-05-26T13:37:20.254Z,99166.17
2019-05-26T13:40:49.497Z,99169.95
2019-05-26T13:43:19.873Z,99173.53
2019-05-26T13:46:09.732Z,99168.83
2019-05-26T13:48:59.513Z,99171.41
2019-05-26T13:51:50.492Z,99167.94
2019-05-26T13:54:40.806Z,99169.23
2019-05-26T13:57:30.631Z,99169.36
2019-05-26T14:04:00.785Z,99169.93
2019-05-26T14:06:50.565Z,99174.39
2019-05-26T14:09:40.379Z,99171.27
2019-05-26T14:12:30.164Z,99170.58
2019-05-26T14:15:00.613Z,99176.97
2019-05-26T14:17:50.540Z,99177.25
2019-05-26T14:21:19.930Z,99177.58
2019-05-26T14:24:09.758Z,99183.08
2019-05-26T14:26:59.567Z,99188.44
2019-05-26T14:29:49.362Z,99189.28
2019-05-26T14:32:19.791Z,99194.97
2019-05-26T14:35:09.561Z,99193.02
2019-05-26T14:37:59.407Z,99194.14
2019-05-26T14:40:49.284Z,99195.50
2019-05-26T14:43:19.839Z,99193.50
2019-05-26T14:46:09.681Z,99194.80
2019-05-26T14:48:59.473Z,99198.41
2019-05-26T14:51:49.277Z,99200.53
2019-05-26T14:54:19.847Z,99206.20
2019-05-26T14:57:09.641Z,99213.44
2019-05-26T14:59:40.130Z,99213.88
2019-05-26T15:02:30.827Z,99212.72
2019-05-26T15:05:20.760Z,99210.41
2019-05-26T15:08:10.530Z,99204.03
2019-05-26T15:11:00.351Z,99201.06
2019-05-26T15:13:50.176Z,99198.05
2019-05-26T15:16:22.185Z,99193.16
2019-05-26T15:19:12.026Z,99199.74
2019-05-26T15:22:01.850Z,99200.50
2019-05-26T15:24:33.893Z,99200.27
2019-05-26T15:27:23.841Z,99204.55
2019-05-26T15:30:53.072Z,99197.84
2019-05-26T15:33:42.921Z,99197.59
2019-05-26T15:36:32.817Z,99190.73
2019-05-26T15:39:22.683Z,99182.20
2019-05-26T15:42:12.517Z,99187.29
2019-05-26T15:45:02.364Z,99187.04
2019-05-26T15:47:52.109Z,99182.62
2019-05-26T15:50:41.963Z,99182.61
2019-05-26T15:53:31.766Z,99189.28
2019-05-26T15:56:21.593Z,99187.34
2019-05-26T15:59:11.367Z,99194.28
2019-05-26T16:02:01.203Z,99189.14
2019-05-26T16:04:51.025Z,99188.42
2019-05-26T16:07:40.851Z,99188.81
2019-05-26T16:10:30.637Z,99196.73
2019-05-26T16:13:20.450Z,99199.18
2019-05-26T16:16:10.235Z,99197.62
2019-05-26T16:19:00.084Z,99198.88
2019-05-26T16:21:49.832Z,99200.00
2019-05-26T16:24:20.309Z,99201.72
2019-05-26T16:27:19.290Z,99204.94
2019-05-26T16:29:58.724Z,99199.38
2019-05-26T16:32:48.497Z,99197.36
2019-05-26T16:35:38.390Z,99195.26
2019-05-26T16:38:28.234Z,99199.00
2019-05-26T16:41:18.054Z,99190.33
2019-05-26T16:43:48.510Z,99186.91
2019-05-26T16:46:38.305Z,99177.55
2019-05-26T16:49:28.127Z,99169.24
2019-05-26T16:51:58.495Z,99164.30
2019-05-26T16:54:48.225Z,99164.76
2019-05-26T16:57:38.025Z,99157.75
2019-05-26T17:03:33.204Z,99156.66
2019-05-26T17:06:23.008Z,99151.53
2019-05-26T17:09:16.418Z,99152.95
2019-05-26T17:12:06.245Z,99157.24
2019-05-26T17:14:56.067Z,99159.67
2019-05-26T17:17:45.851Z,99161.34
2019-05-26T17:20:36.016Z,99158.13
2019-05-26T17:23:29.335Z,99154.78
2019-05-26T17:25:59.721Z,99154.48
2019-05-26T17:28:50.350Z,99154.45
2019-05-26T17:31:20.823Z,99161.98
2019-05-26T17:34:10.638Z,99168.03
2019-05-26T17:37:00.467Z,99159.97
2019-05-26T17:40:09.857Z,99162.24
2019-05-26T17:42:59.658Z,99133.28
2019-05-26T17:45:49.637Z,99156.82
2019-05-26T17:48:20.133Z,99154.66
2019-05-26T17:51:09.950Z,99139.13
2019-05-26T17:53:59.778Z,99144.34
2019-05-26T18:00:00.460Z,99138.45
2019-05-26T18:02:50.375Z,99137.44
2019-05-26T18:05:21.174Z,99138.19
2019-05-26T18:08:10.963Z,99132.68
2019-05-26T18:10:41.753Z,99127.47
2019-05-26T18:13:31.545Z,99130.91
2019-05-26T18:16:21.395Z,99136.61
2019-05-26T18:19:11.627Z,99131.09
2019-05-26T18:22:01.459Z,99124.84
2019-05-26T18:24:57.277Z,99120.98
2019-05-26T18:27:34.150Z,99118.61
2019-05-26T18:30:23.943Z,99123.46
2019-05-26T18:33:13.993Z,99118.44
2019-05-26T18:36:03.991Z,99130.53
2019-05-26T18:38:53.819Z,99125.89
2019-05-26T18:41:44.052Z,99126.98
2019-05-26T18:44:33.840Z,99125.05
2019-05-26T18:47:23.733Z,99126.06
2019-05-26T18:50:33.985Z,99135.13
2019-05-26T18:53:23.756Z,99131.70
2019-05-26T18:56:13.589Z,99134.38
2019-05-26T18:59:03.470Z,99139.19
2019-05-26T19:01:53.369Z,99141.26
2019-05-26T19:04:43.252Z,99148.38
2019-05-26T19:07:33.076Z,99149.02
2019-05-26T19:10:23.021Z,99147.05
2019-05-26T19:13:12.928Z,99145.55
2019-05-26T19:16:02.715Z,99148.78
2019-05-26T19:18:52.572Z,99156.35
2019-05-26T19:21:23.123Z,99153.58
2019-05-26T19:24:12.989Z,99157.09
2019-05-26T19:27:02.795Z,99148.56
2019-05-26T19:29:52.645Z,99151.05
2019-05-26T19:35:53.642Z,99151.68
2019-05-26T19:38:43.459Z,99145.37
2019-05-26T19:41:34.155Z,99152.20
2019-05-26T19:44:24.034Z,99146.63
2019-05-26T19:47:13.847Z,99146.34
2019-05-26T19:50:03.686Z,99147.81
2019-05-26T19:52:53.661Z,99150.29
2019-05-26T19:55:43.448Z,99146.45
2019-05-26T19:58:33.304Z,99149.70
2019-05-26T20:01:23.167Z,99148.06
2019-05-26T20:04:12.972Z,99141.93
2019-05-26T20:07:02.811Z,99140.07
2019-05-26T20:09:52.692Z,99136.70
2019-05-26T20:12:42.525Z,99136.56
2019-05-26T20:15:32.501Z,99130.09
2019-05-26T20:18:23.863Z,99133.80
2019-05-26T20:21:14.572Z,99136.05
2019-05-26T20:24:04.485Z,99140.17
2019-05-26T20:26:54.312Z,99142.02
2019-05-26T20:29:44.141Z,99145.29
2019-05-26T20:32:33.998Z,99140.78
2019-05-26T20:35:23.815Z,99145.87
2019-05-26T20:38:13.631Z,99150.98
2019-05-26T20:41:03.521Z,99146.87
2019-05-26T20:43:33.953Z,99153.44
2019-05-26T20:46:23.831Z,99149.17
2019-05-26T20:49:13.665Z,99150.46
2019-05-26T20:52:03.507Z,99150.98
2019-05-26T20:54:53.365Z,99152.18
2019-05-26T20:57:43.275Z,99149.69
2019-05-26T21:00:33.094Z,99145.58
2019-05-26T21:03:22.919Z,99155.20
2019-05-26T21:06:12.716Z,99155.55
2019-05-26T21:09:02.561Z,99151.67
2019-05-26T21:11:52.383Z,99158.70
2019-05-26T21:14:42.490Z,99158.41
2019-05-26T21:17:32.338Z,99156.05
2019-05-26T21:20:04.812Z,99154.06
2019-05-26T21:22:54.616Z,99156.79
2019-05-26T21:25:44.459Z,99153.64
2019-05-26T21:28:34.248Z,99152.28
2019-05-26T21:31:24.041Z,99153.91
2019-05-26T21:34:13.861Z,99156.73
2019-05-26T21:40:06.327Z,99160.48
2019-05-26T21:42:56.116Z,99157.18
2019-05-26T21:45:45.936Z,99152.00
2019-05-26T21:48:35.770Z,99150.34
2019-05-26T21:51:25.636Z,99147.79
2019-05-26T21:54:15.442Z,99145.75
2019-05-26T21:57:05.279Z,99150.38
2019-05-26T21:59:55.052Z,99146.56
2019-05-26T22:02:25.489Z,99144.26
2019-05-26T22:05:15.388Z,99137.30
2019-05-26T22:08:05.194Z,99131.98
2019-05-26T22:10:57.401Z,99137.39
2019-05-26T22:13:47.240Z,99132.08
2019-05-26T22:16:37.013Z,99134.19
2019-05-26T22:19:26.813Z,99130.75
2019-05-26T22:22:35.610Z,99128.22
2019-05-26T22:25:25.419Z,99118.80
2019-05-26T22:28:15.199Z,99113.30
2019-05-26T22:31:05.016Z,99118.13
2019-05-26T22:33:54.767Z,99112.66
2019-05-26T22:36:44.551Z,99109.22
2019-05-26T22:39:34.350Z,99105.88
2019-05-26T22:42:04.978Z,99103.97
2019-05-26T22:44:54.761Z,99089.89
2019-05-26T22:47:44.583Z,99092.97
2019-05-26T22:50:34.440Z,99090.23
2019-05-26T22:53:24.253Z,99093.50
2019-05-26T22:56:14.145Z,99090.91
2019-05-26T22:59:03.988Z,99086.19
2019-05-26T23:01:53.791Z,99089.78
2019-05-26T23:04:24.190Z,99086.83
2019-05-26T23:07:13.945Z,99078.61
2019-05-26T23:09:44.337Z,99077.84
2019-05-26T23:12:34.121Z,99075.25
2019-05-26T23:15:23.921Z,99078.06
2019-05-26T23:18:13.719Z,99072.34
2019-05-26T23:21:03.500Z,99073.22
2019-05-26T23:23:53.285Z,99077.30
2019-05-26T23:26:43.102Z,99080.41
2019-05-26T23:29:32.873Z,99084.42
2019-05-26T23:32:05.457Z,99082.67
2019-05-26T23:34:55.228Z,99081.31
2019-05-26T23:37:45.090Z,99083.91
2019-05-26T23:40:34.866Z,99085.65
2019-05-26T23:43:05.351Z,99077.44
2019-05-26T23:45:41.532Z,99073.45
2019-05-26T23:48:31.363Z,99070.25
2019-05-26T23:51:21.120Z,99072.58
2019-05-26T23:54:10.965Z,99053.77
2019-05-26T23:56:41.396Z,99058.34
2019-05-26T23:59:31.215Z,99052.12
